»·PEaware :: UAL2186 KLAX-KSFO

UAL2186 :: KLAX-KSFO

FLIGHT INFORMATION

Flight Status: Arrived
Operator:
United Airlines
More flights by this operator :: More flights under this callsign
Pilot: Ben F. (13029)
Aircraft: BOEING 737-800
(B738)
More flights by this aircraft type
Origin: KLAX Los Angeles Intl
United States
Destination: KSFO San Francisco Intl
United States
More flights between these airports :: More routes between these airports
Route: SUMMR2 STOKD SERFR SERFR3
File this flight plan on PilotEdge
Remarks: RMK / SIMBRIEF
Altitude:
(Current/Filed)
36,000ft
Speed:
(Current/Filed)
456kts
Departed: 09-Jan-20 03:40 PM
Arrived: 09-Jan-20 04:47 PM
Distance/Time
Traveled:
293nm/1:07
Distance/Time
To Go:
Arrived

Flight Plot

Page will automatically refresh every two minutes.

Flight plan parsing failed; only flown route is shown


Map Options




Map Legend


Flown Route
Filed Route
Departure Airport
Arrival Airport
Navaid (VOR, NDB)
Fix

Horizontal Profiles

Position Reports

Time Latitude Longitude Heading Altitude Ground
Speed
09-Jan-20 15:10 33.941653 -118.400249 82 113ft 0kts
09-Jan-20 15:11 33.941653 -118.400249 82 113ft 0kts
09-Jan-20 15:12 33.941653 -118.400249 82 113ft 0kts
09-Jan-20 15:13 33.941653 -118.400249 82 113ft 0kts
09-Jan-20 15:14 33.941653 -118.400249 82 113ft 0kts
09-Jan-20 15:15 33.941653 -118.400249 82 113ft 0kts
09-Jan-20 15:16 33.941653 -118.400249 82 113ft 0kts
09-Jan-20 15:17 33.941653 -118.400249 82 113ft 0kts
09-Jan-20 15:18 33.941653 -118.400249 82 113ft 0kts
09-Jan-20 15:19 33.941653 -118.400249 82 113ft 0kts
09-Jan-20 15:20 33.941653 -118.400249 82 113ft 0kts
09-Jan-20 15:21 33.941653 -118.400249 82 113ft 0kts
09-Jan-20 15:22 33.941653 -118.400249 82 113ft 0kts
09-Jan-20 15:23 33.941653 -118.400249 82 113ft 0kts
09-Jan-20 15:24 33.941653 -118.400249 82 113ft 0kts
09-Jan-20 15:25 33.941653 -118.400249 82 113ft 0kts
09-Jan-20 15:26 33.941653 -118.400249 82 113ft 0kts
09-Jan-20 15:27 33.941653 -118.400249 82 113ft 0kts
09-Jan-20 15:28 33.941653 -118.400249 82 113ft 0kts
09-Jan-20 15:29 33.941638 -118.400376 81 113ft 2kts
09-Jan-20 15:30 33.941694 -118.400885 180 113ft 1kts
09-Jan-20 15:31 33.941749 -118.400887 173 113ft 0kts
09-Jan-20 15:32 33.941749 -118.400887 173 113ft 0kts
09-Jan-20 15:33 33.941749 -118.400887 173 113ft 0kts
09-Jan-20 15:34 33.940284 -118.400663 172 113ft 0kts
09-Jan-20 15:35 33.938859 -118.399990 108 113ft 15kts
09-Jan-20 15:36 33.939623 -118.391696 83 113ft 34kts
09-Jan-20 15:37 33.940687 -118.380731 104 113ft 3kts
09-Jan-20 15:38 33.940686 -118.380729 104 113ft 0kts
09-Jan-20 15:39 33.939373 -118.384765 262 113ft 77kts
09-Jan-20 15:40 33.934253 -118.432231 264 2276ft 165kts
09-Jan-20 15:41 33.928353 -118.496380 266 4480ft 210kts
09-Jan-20 15:42 33.922417 -118.572567 265 4915ft 230kts
09-Jan-20 15:43 33.917562 -118.652487 271 6859ft 253kts
09-Jan-20 15:44 33.917393 -118.739070 273 10080ft 267kts
09-Jan-20 15:45 33.917009 -118.830438 275 12744ft 277kts
09-Jan-20 15:46 33.919850 -118.927869 278 13873ft 305kts
09-Jan-20 15:47 33.931276 -119.026896 299 16254ft 293kts
09-Jan-20 15:48 33.971165 -119.111154 306 18106ft 292kts
09-Jan-20 15:49 34.018402 -119.190874 319 19869ft 292kts
09-Jan-20 15:50 34.083640 -119.249646 324 21392ft 295kts
09-Jan-20 15:51 34.151069 -119.307602 324 22780ft 299kts
09-Jan-20 15:52 34.219279 -119.366361 324 24045ft 302kts
09-Jan-20 15:53 34.288016 -119.425725 324 25215ft 306kts
09-Jan-20 15:54 34.357513 -119.485865 324 26206ft 309kts
09-Jan-20 15:55 34.425617 -119.550021 317 27143ft 312kts
09-Jan-20 15:56 34.486955 -119.625564 316 27961ft 315kts
09-Jan-20 15:57 34.548780 -119.701821 316 28848ft 318kts
09-Jan-20 15:58 34.611146 -119.778749 316 29596ft 322kts
09-Jan-20 15:59 34.674024 -119.856467 317 30321ft 324kts
09-Jan-20 16:00 34.737256 -119.934790 316 31023ft 325kts
09-Jan-20 16:01 34.800047 -120.012798 316 31775ft 320kts
09-Jan-20 16:02 34.861970 -120.089899 316 32403ft 316kts
09-Jan-20 16:03 34.923638 -120.166836 318 32708ft 319kts
09-Jan-20 16:05 34.985990 -120.244771 318 32925ft 324kts
09-Jan-20 16:06 35.048750 -120.323491 320 33411ft 319kts
09-Jan-20 16:07 35.110027 -120.398344 323 34307ft 303kts
09-Jan-20 16:08 35.171021 -120.466000 322 35330ft 288kts
09-Jan-20 16:09 35.229356 -120.531387 322 35807ft 287kts
09-Jan-20 16:10 35.288988 -120.598404 323 35869ft 296kts
09-Jan-20 16:11 35.350374 -120.667591 322 35876ft 301kts
09-Jan-20 16:12 35.411898 -120.737106 322 35873ft 302kts
09-Jan-20 16:13 35.474258 -120.807588 322 35796ft 310kts
09-Jan-20 16:14 35.542563 -120.873005 327 35748ft 315kts
09-Jan-20 16:15 35.613588 -120.938857 326 35744ft 323kts
09-Jan-20 16:16 35.685831 -121.006026 326 35739ft 328kts
09-Jan-20 16:17 35.758721 -121.073974 326 35739ft 332kts
09-Jan-20 16:18 35.832532 -121.142948 326 35737ft 335kts
09-Jan-20 16:19 35.908716 -121.214273 325 34556ft 366kts
09-Jan-20 16:20 35.993065 -121.293470 325 32152ft 384kts
09-Jan-20 16:21 36.074997 -121.369720 329 30149ft 352kts
09-Jan-20 16:21 36.142668 -121.422521 330 30115ft 357kts
09-Jan-20 16:23 36.238877 -121.497653 330 30116ft 351kts
09-Jan-20 16:24 36.320933 -121.561924 330 29285ft 341kts
09-Jan-20 16:24 36.386445 -121.613317 330 27664ft 328kts
09-Jan-20 16:26 36.477871 -121.685268 330 26045ft 344kts
09-Jan-20 16:27 36.558587 -121.749189 330 23397ft 338kts
09-Jan-20 16:27 36.622893 -121.800073 331 21766ft 322kts
09-Jan-20 16:29 36.708418 -121.867887 331 19579ft 304kts
09-Jan-20 16:29 36.770362 -121.902314 347 18087ft 289kts
09-Jan-20 16:30 36.847727 -121.923844 348 16160ft 284kts
09-Jan-20 16:32 36.936946 -121.948762 348 14935ft 291kts
09-Jan-20 16:32 37.001816 -121.972426 344 14933ft 293kts
09-Jan-20 16:33 37.080306 -122.003135 344 14735ft 292kts
09-Jan-20 16:34 37.158802 -122.033798 343 12122ft 309kts
09-Jan-20 16:35 37.241934 -122.066363 343 8805ft 312kts
09-Jan-20 16:36 37.317837 -122.096240 343 7163ft 264kts
09-Jan-20 16:37 37.382473 -122.121498 344 6007ft 210kts
09-Jan-20 16:38 37.429611 -122.137501 345 5213ft 168kts
09-Jan-20 16:39 37.472809 -122.152333 345 4280ft 158kts
09-Jan-20 16:40 37.514892 -122.166804 345 3465ft 143kts
09-Jan-20 16:41 37.542092 -122.196395 308 3104ft 135kts
09-Jan-20 16:42 37.561047 -122.238421 304 2277ft 137kts
09-Jan-20 16:43 37.578628 -122.280765 302 1680ft 138kts
09-Jan-20 16:44 37.597440 -122.325024 303 762ft 148kts
09-Jan-20 16:45 37.615995 -122.368488 298 14ft 102kts
09-Jan-20 16:46 37.620019 -122.378546 273 31ft 5kts
09-Jan-20 16:47 37.619270 -122.381092 296 34ft 9kts
09-Jan-20 16:48 37.620553 -122.385022 215 34ft 9kts
09-Jan-20 16:49 37.618935 -122.385944 172 33ft 0kts
09-Jan-20 16:50 37.618935 -122.385944 172 33ft 0kts
09-Jan-20 16:51 37.618935 -122.385944 172 33ft 0kts

Navigation Log

Ident Type
Flight plan parsing failed, navigation log unavailable